createdAt,value
2018-07-22T00:00:10.890Z,98.30
2018-07-22T00:02:39.590Z,98.20
2018-07-22T00:05:08.464Z,98.10
2018-07-22T00:07:36.810Z,97.70
2018-07-22T00:10:05.650Z,97.40
2018-07-22T00:12:33.980Z,97.40
2018-07-22T00:15:02.278Z,97.60
2018-07-22T00:17:30.627Z,97.50
2018-07-22T00:19:58.939Z,97.50
2018-07-22T00:22:27.299Z,97.50
2018-07-22T00:24:55.596Z,97.60
2018-07-22T00:27:24.011Z,97.90
2018-07-22T00:29:52.347Z,97.70
2018-07-22T00:32:20.766Z,97.80
2018-07-22T00:34:49.250Z,97.80
2018-07-22T00:37:17.868Z,97.50
2018-07-22T00:39:46.258Z,97.60
2018-07-22T00:42:14.557Z,97.80
2018-07-22T00:44:42.865Z,97.60
2018-07-22T00:47:11.185Z,97.60
2018-07-22T00:49:39.468Z,97.60
2018-07-22T00:52:07.847Z,97.70
2018-07-22T00:54:36.206Z,97.80
2018-07-22T00:57:04.500Z,97.90
2018-07-22T00:59:32.850Z,98.10
2018-07-22T01:02:01.239Z,98.20
2018-07-22T01:04:29.615Z,98.30
2018-07-22T01:06:57.995Z,98.30
2018-07-22T01:09:26.398Z,98.30
2018-07-22T01:11:54.779Z,98.30
2018-07-22T01:14:23.095Z,98.50
2018-07-22T01:16:51.559Z,98.60
2018-07-22T01:19:19.976Z,98.80
2018-07-22T01:21:48.338Z,98.50
2018-07-22T01:24:16.609Z,98.60
2018-07-22T01:26:44.945Z,98.60
2018-07-22T01:29:13.333Z,98.60
2018-07-22T01:31:41.660Z,98.70
2018-07-22T01:34:09.969Z,98.70
2018-07-22T01:36:38.300Z,98.70
2018-07-22T01:39:07.999Z,98.80
2018-07-22T01:41:36.436Z,98.90
2018-07-22T01:44:05.036Z,98.90
2018-07-22T01:46:33.433Z,98.90
2018-07-22T01:49:01.992Z,99.00
2018-07-22T01:51:30.404Z,99.10
2018-07-22T01:53:58.708Z,99.10
2018-07-22T01:56:27.269Z,99.20
2018-07-22T01:58:55.633Z,99.20
2018-07-22T02:01:24.157Z,99.20
2018-07-22T02:03:52.517Z,99.20
2018-07-22T02:06:20.831Z,99.40
2018-07-22T02:08:49.171Z,99.60
2018-07-22T02:11:17.470Z,99.40
2018-07-22T02:13:45.823Z,99.30
2018-07-22T02:16:14.235Z,99.40
2018-07-22T02:18:42.576Z,99.30
2018-07-22T02:21:11.054Z,99.60
2018-07-22T02:23:39.396Z,99.50
2018-07-22T02:26:07.812Z,99.60
2018-07-22T02:28:36.320Z,99.80
2018-07-22T02:31:04.679Z,99.90
2018-07-22T02:33:33.153Z,99.70
2018-07-22T02:36:01.516Z,99.90
2018-07-22T02:38:29.861Z,99.80
2018-07-22T02:40:58.185Z,99.90
2018-07-22T02:43:26.488Z,99.90
2018-07-22T02:45:54.801Z,99.80
2018-07-22T02:48:23.163Z,99.80
2018-07-22T02:50:51.542Z,99.80
2018-07-22T02:53:19.869Z,99.80
2018-07-22T02:55:48.208Z,99.90
2018-07-22T02:58:16.605Z,99.90
2018-07-22T03:00:44.991Z,99.90
2018-07-22T03:03:13.499Z,99.90
2018-07-22T03:05:41.789Z,99.90
2018-07-22T03:10:38.162Z,99.90
2018-07-22T03:13:06.487Z,99.90
2018-07-22T03:15:34.903Z,99.90
2018-07-22T03:18:03.247Z,99.90
2018-07-22T03:20:31.652Z,99.90
2018-07-22T03:22:59.968Z,99.90
2018-07-22T03:25:28.284Z,99.90
2018-07-22T03:27:56.654Z,99.90
2018-07-22T03:30:25.043Z,99.90
2018-07-22T03:32:53.414Z,99.90
2018-07-22T03:35:21.895Z,99.90
2018-07-22T03:37:50.331Z,99.90
2018-07-22T03:40:18.690Z,99.90
2018-07-22T03:42:47.049Z,99.90
2018-07-22T03:45:15.372Z,99.90
2018-07-22T03:47:43.736Z,99.90
2018-07-22T03:50:12.052Z,99.90
2018-07-22T03:52:40.341Z,99.90
2018-07-22T03:55:08.705Z,99.90
2018-07-22T03:57:37.055Z,99.90
2018-07-22T04:00:05.987Z,99.90
2018-07-22T04:02:34.382Z,99.90
2018-07-22T04:05:02.688Z,99.90
2018-07-22T04:07:31.036Z,99.90
2018-07-22T04:09:59.502Z,99.90
2018-07-22T04:12:27.874Z,99.90
2018-07-22T04:14:56.447Z,99.90
2018-07-22T04:17:24.811Z,99.90
2018-07-22T04:19:53.317Z,99.90
2018-07-22T04:22:21.650Z,99.90
2018-07-22T04:24:50.047Z,99.90
2018-07-22T04:27:18.497Z,99.90
2018-07-22T04:29:46.842Z,99.90
2018-07-22T04:32:15.172Z,99.90
2018-07-22T04:34:43.520Z,99.90
2018-07-22T04:37:11.835Z,99.90
2018-07-22T04:39:40.148Z,99.90
2018-07-22T04:42:08.543Z,99.90
2018-07-22T04:44:36.860Z,99.90
2018-07-22T04:47:05.287Z,99.90
2018-07-22T04:49:33.747Z,99.90
2018-07-22T04:52:02.440Z,99.90
2018-07-22T04:54:30.859Z,99.90
2018-07-22T04:56:59.243Z,99.90
2018-07-22T04:59:27.614Z,99.90
2018-07-22T05:01:55.931Z,99.90
2018-07-22T05:04:24.261Z,99.90
2018-07-22T05:06:52.585Z,99.90
2018-07-22T05:09:20.886Z,99.90
2018-07-22T05:11:49.243Z,99.90
2018-07-22T05:14:17.544Z,99.90
2018-07-22T05:16:45.874Z,99.90
2018-07-22T05:19:14.196Z,99.90
2018-07-22T05:21:42.511Z,99.90
2018-07-22T05:24:10.871Z,99.90
2018-07-22T05:26:39.227Z,99.90
2018-07-22T05:29:07.981Z,99.90
2018-07-22T05:31:36.400Z,99.90
2018-07-22T05:34:05.753Z,99.70
2018-07-22T05:36:34.349Z,99.80
2018-07-22T05:39:02.647Z,99.70
2018-07-22T05:41:31.340Z,99.60
2018-07-22T05:43:59.868Z,99.20
2018-07-22T05:46:28.211Z,98.90
2018-07-22T05:48:56.472Z,98.80
2018-07-22T05:51:24.789Z,99.00
2018-07-22T05:53:53.154Z,99.10
2018-07-22T05:56:21.471Z,99.00
2018-07-22T05:58:49.889Z,99.00
2018-07-22T06:01:18.180Z,98.90
2018-07-22T06:03:46.579Z,98.90
2018-07-22T06:06:15.027Z,99.00
2018-07-22T06:08:43.413Z,99.00
2018-07-22T06:11:11.808Z,98.90
2018-07-22T06:13:40.100Z,99.20
2018-07-22T06:16:08.544Z,99.20
2018-07-22T06:18:36.861Z,98.80
2018-07-22T06:21:05.263Z,98.80
2018-07-22T06:23:33.654Z,98.60
2018-07-22T06:26:02.007Z,98.50
2018-07-22T06:28:30.310Z,98.40
2018-07-22T06:30:58.661Z,98.10
2018-07-22T06:33:27.047Z,98.10
2018-07-22T06:35:55.368Z,97.90
2018-07-22T06:38:23.680Z,97.70
2018-07-22T06:40:51.987Z,97.70
2018-07-22T06:43:20.400Z,97.50
2018-07-22T06:45:48.775Z,97.00
2018-07-22T06:48:17.117Z,96.80
2018-07-22T06:50:45.452Z,96.80
2018-07-22T06:53:13.757Z,96.50
2018-07-22T06:55:42.194Z,96.40
2018-07-22T06:58:10.646Z,96.30
2018-07-22T07:00:39.000Z,96.30
2018-07-22T07:03:07.354Z,96.10
2018-07-22T07:05:35.685Z,95.80
2018-07-22T07:08:04.144Z,95.70
2018-07-22T07:10:32.486Z,95.50
2018-07-22T07:13:00.811Z,95.30
2018-07-22T07:15:29.154Z,95.40
2018-07-22T07:17:57.513Z,95.20
2018-07-22T07:20:25.875Z,94.90
2018-07-22T07:22:54.387Z,94.60
2018-07-22T07:25:22.734Z,94.50
2018-07-22T07:27:51.084Z,94.40
2018-07-22T07:30:19.422Z,94.10
2018-07-22T07:32:47.715Z,93.90
2018-07-22T07:35:16.066Z,93.90
2018-07-22T07:37:44.402Z,93.80
2018-07-22T07:40:12.827Z,93.80
2018-07-22T07:42:41.410Z,93.70
2018-07-22T07:45:09.773Z,93.50
2018-07-22T07:47:38.212Z,93.30
2018-07-22T07:50:06.512Z,93.30
2018-07-22T07:52:35.019Z,93.40
2018-07-22T07:55:03.365Z,93.00
2018-07-22T07:57:31.795Z,93.10
2018-07-22T08:00:00.226Z,92.80
2018-07-22T08:02:29.054Z,92.50
2018-07-22T08:04:57.448Z,92.30
2018-07-22T08:07:25.944Z,92.20
2018-07-22T08:09:54.274Z,92.00
2018-07-22T08:12:22.654Z,91.80
2018-07-22T08:14:50.945Z,91.30
2018-07-22T08:17:19.252Z,91.10
2018-07-22T08:19:47.549Z,90.80
2018-07-22T08:22:15.991Z,90.70
2018-07-22T08:24:44.292Z,90.80
2018-07-22T08:27:12.570Z,87.60
2018-07-22T08:29:40.879Z,88.10
2018-07-22T08:32:09.216Z,87.50
2018-07-22T08:34:37.656Z,87.70
2018-07-22T08:37:06.179Z,88.00
2018-07-22T08:39:34.628Z,85.90
2018-07-22T08:42:02.963Z,85.50
2018-07-22T08:44:31.378Z,85.40
2018-07-22T08:46:59.685Z,84.50
2018-07-22T08:49:27.963Z,83.80
2018-07-22T08:51:56.363Z,84.40
2018-07-22T08:54:24.680Z,84.30
2018-07-22T08:56:53.002Z,83.70
2018-07-22T08:59:21.291Z,79.60
2018-07-22T09:01:49.624Z,79.60
2018-07-22T09:04:17.983Z,78.00
2018-07-22T09:06:46.392Z,78.60
2018-07-22T09:09:15.064Z,76.80
2018-07-22T09:11:43.541Z,76.90
2018-07-22T09:14:11.947Z,77.60
2018-07-22T09:16:40.284Z,77.00
2018-07-22T09:19:08.735Z,75.80
2018-07-22T09:21:37.221Z,76.40
2018-07-22T09:24:05.521Z,75.70
2018-07-22T09:26:33.924Z,75.10
2018-07-22T09:29:02.234Z,74.20
2018-07-22T09:31:30.523Z,74.30
2018-07-22T09:33:58.812Z,73.90
2018-07-22T09:36:27.118Z,75.60
2018-07-22T09:38:55.519Z,73.30
2018-07-22T09:41:23.887Z,71.10
2018-07-22T09:43:52.301Z,72.30
2018-07-22T09:46:20.640Z,71.40
2018-07-22T09:48:49.084Z,70.10
2018-07-22T09:51:17.497Z,70.10
2018-07-22T09:53:46.144Z,69.60
2018-07-22T09:56:14.760Z,69.60
2018-07-22T09:58:43.253Z,69.60
2018-07-22T10:01:11.590Z,69.80
2018-07-22T10:03:40.102Z,70.40
2018-07-22T10:06:08.552Z,69.50
2018-07-22T10:08:36.966Z,69.50
2018-07-22T10:11:05.707Z,69.40
2018-07-22T10:13:34.147Z,69.10
2018-07-22T10:16:02.430Z,68.30
2018-07-22T10:18:30.810Z,69.10
2018-07-22T10:20:59.127Z,68.80
2018-07-22T10:23:27.592Z,68.80
2018-07-22T10:25:56.089Z,69.30
2018-07-22T10:28:24.543Z,69.40
2018-07-22T10:30:52.955Z,70.00
2018-07-22T10:33:21.257Z,69.80
2018-07-22T10:35:49.720Z,71.00
2018-07-22T10:38:18.202Z,70.20
2018-07-22T10:40:46.620Z,70.30
2018-07-22T10:43:15.067Z,70.10
2018-07-22T10:45:43.330Z,70.90
2018-07-22T10:48:11.766Z,70.60
2018-07-22T10:50:40.097Z,70.10
2018-07-22T10:53:08.457Z,70.40
2018-07-22T10:55:36.814Z,70.00
2018-07-22T10:58:05.231Z,70.30
2018-07-22T11:00:35.379Z,70.30
2018-07-22T11:03:05.293Z,69.40
2018-07-22T11:08:01.895Z,69.40
2018-07-22T11:10:30.554Z,70.10
2018-07-22T11:12:59.209Z,69.90
2018-07-22T11:15:27.528Z,69.40
2018-07-22T11:17:55.840Z,69.60
2018-07-22T11:20:24.224Z,69.20
2018-07-22T11:22:52.686Z,69.30
2018-07-22T11:25:21.127Z,69.20
2018-07-22T11:27:49.508Z,69.40
2018-07-22T11:30:18.157Z,69.40
2018-07-22T11:32:46.483Z,68.40
2018-07-22T11:35:14.972Z,67.80
2018-07-22T11:37:43.347Z,67.20
2018-07-22T11:40:11.682Z,66.30
2018-07-22T11:42:40.058Z,66.10
2018-07-22T11:45:08.433Z,66.60
2018-07-22T11:47:37.028Z,67.50
2018-07-22T11:50:05.403Z,68.30
2018-07-22T11:52:34.357Z,69.10
2018-07-22T11:55:02.735Z,69.70
2018-07-22T11:57:31.023Z,70.20
2018-07-22T11:59:59.321Z,69.50
2018-07-22T12:02:27.645Z,68.70
2018-07-22T12:04:55.947Z,68.80
2018-07-22T12:07:24.326Z,67.70
2018-07-22T12:09:52.681Z,67.20
2018-07-22T12:12:21.097Z,67.20
2018-07-22T12:14:49.456Z,67.80
2018-07-22T12:17:17.965Z,68.50
2018-07-22T12:19:46.478Z,67.60
2018-07-22T12:22:14.841Z,67.20
2018-07-22T12:24:43.496Z,66.00
2018-07-22T12:27:11.872Z,66.40
2018-07-22T12:29:40.182Z,65.70
2018-07-22T12:32:08.538Z,67.00
2018-07-22T12:34:36.970Z,67.20
2018-07-22T12:37:05.327Z,67.80
2018-07-22T12:39:33.679Z,67.70
2018-07-22T12:42:02.029Z,67.90
2018-07-22T12:44:30.380Z,67.10
2018-07-22T12:46:58.762Z,66.60
2018-07-22T12:49:27.157Z,67.50
2018-07-22T12:51:55.494Z,67.40
2018-07-22T12:54:23.993Z,66.50
2018-07-22T12:56:52.468Z,65.80
2018-07-22T12:59:21.071Z,64.70
2018-07-22T13:01:49.780Z,65.30
2018-07-22T13:04:18.714Z,65.20
2018-07-22T13:06:48.380Z,65.40
2018-07-22T13:09:16.779Z,66.10
2018-07-22T13:11:45.192Z,66.60
2018-07-22T13:14:13.634Z,67.10
2018-07-22T13:19:10.004Z,66.00
2018-07-22T13:21:38.311Z,65.10
2018-07-22T13:24:06.707Z,64.40
2018-07-22T13:26:35.005Z,64.70
2018-07-22T13:29:03.375Z,64.40
2018-07-22T13:31:31.762Z,65.10
2018-07-22T13:34:00.075Z,65.30
2018-07-22T13:36:28.672Z,65.40
2018-07-22T13:38:57.013Z,65.70
2018-07-22T13:41:25.564Z,66.50
2018-07-22T13:43:53.935Z,66.80
2018-07-22T13:46:22.230Z,66.70
2018-07-22T13:48:50.590Z,67.20
2018-07-22T13:51:18.955Z,66.40
2018-07-22T13:53:47.353Z,65.90
2018-07-22T13:56:15.687Z,65.30
2018-07-22T13:58:44.052Z,65.10
2018-07-22T14:03:40.476Z,64.90
2018-07-22T14:06:08.835Z,64.70
2018-07-22T14:08:37.514Z,64.00
2018-07-22T14:11:05.860Z,63.20
2018-07-22T14:13:34.192Z,63.70
2018-07-22T14:16:02.584Z,64.50
2018-07-22T14:18:31.182Z,66.10
2018-07-22T14:20:59.512Z,66.30
2018-07-22T14:23:27.892Z,66.90
2018-07-22T14:25:56.272Z,66.70
2018-07-22T14:28:24.626Z,67.30
2018-07-22T14:30:52.936Z,66.90
2018-07-22T14:33:21.270Z,67.00
2018-07-22T14:35:49.613Z,66.40
2018-07-22T14:38:17.989Z,66.20
2018-07-22T14:40:46.337Z,66.10
2018-07-22T14:43:14.715Z,66.10
2018-07-22T14:45:43.084Z,66.00
2018-07-22T14:48:11.684Z,65.50
2018-07-22T14:50:40.159Z,65.50
2018-07-22T14:53:08.601Z,65.40
2018-07-22T14:55:37.166Z,65.40
2018-07-22T14:58:05.563Z,66.00
2018-07-22T15:00:34.063Z,66.60
2018-07-22T15:03:02.385Z,67.10
2018-07-22T15:05:30.875Z,67.00
2018-07-22T15:07:59.300Z,66.70
2018-07-22T15:10:27.611Z,66.10
2018-07-22T15:12:55.995Z,66.10
2018-07-22T15:15:24.389Z,65.30
2018-07-22T15:17:52.720Z,65.80
2018-07-22T15:20:21.205Z,65.20
2018-07-22T15:22:49.493Z,65.30
2018-07-22T15:25:17.884Z,65.30
2018-07-22T15:27:46.210Z,64.90
2018-07-22T15:30:14.660Z,65.80
2018-07-22T15:32:43.046Z,65.80
2018-07-22T15:35:12.051Z,65.80
2018-07-22T15:37:41.284Z,65.30
2018-07-22T15:40:09.575Z,65.00
2018-07-22T15:42:37.845Z,65.30
2018-07-22T15:45:06.148Z,66.20
2018-07-22T15:47:35.353Z,66.40
2018-07-22T15:50:03.706Z,66.40
2018-07-22T15:52:32.050Z,66.50
2018-07-22T15:55:00.452Z,67.00
2018-07-22T15:57:33.246Z,67.00
2018-07-22T16:00:01.604Z,67.60
2018-07-22T16:02:30.038Z,67.90
2018-07-22T16:04:58.415Z,68.00
2018-07-22T16:07:26.749Z,68.70
2018-07-22T16:09:55.158Z,68.90
2018-07-22T16:12:23.573Z,68.50
2018-07-22T16:14:52.044Z,68.30
2018-07-22T16:17:20.443Z,68.20
2018-07-22T16:19:48.883Z,68.20
2018-07-22T16:22:17.342Z,68.30
2018-07-22T16:24:45.837Z,68.30
2018-07-22T16:27:14.199Z,67.70
2018-07-22T16:29:42.780Z,67.60
2018-07-22T16:32:11.100Z,67.20
2018-07-22T16:34:39.443Z,66.90
2018-07-22T16:37:07.790Z,66.20
2018-07-22T16:39:36.273Z,65.70
2018-07-22T16:42:04.702Z,66.40
2018-07-22T16:44:33.005Z,66.50
2018-07-22T16:47:01.490Z,66.20
2018-07-22T16:49:29.832Z,65.90
2018-07-22T16:51:58.211Z,66.20
2018-07-22T16:54:26.622Z,66.50
2018-07-22T16:56:55.044Z,66.60
2018-07-22T16:59:23.386Z,66.50
2018-07-22T17:01:51.764Z,65.90
2018-07-22T17:04:20.130Z,65.70
2018-07-22T17:06:48.404Z,65.90
2018-07-22T17:09:16.816Z,66.20
2018-07-22T17:11:45.109Z,66.60
2018-07-22T17:14:13.492Z,67.20
2018-07-22T17:16:41.869Z,67.80
2018-07-22T17:19:10.294Z,68.00
2018-07-22T17:21:38.635Z,68.50
2018-07-22T17:24:07.499Z,68.90
2018-07-22T17:26:35.952Z,69.30
2018-07-22T17:29:04.618Z,69.80
2018-07-22T17:31:33.153Z,69.80
2018-07-22T17:34:01.770Z,70.00
2018-07-22T17:36:30.245Z,70.20
2018-07-22T17:38:58.679Z,70.60
2018-07-22T17:41:27.013Z,70.60
2018-07-22T17:46:23.408Z,70.70
2018-07-22T17:48:51.801Z,70.00
2018-07-22T17:51:20.107Z,69.80
2018-07-22T17:53:48.709Z,69.50
2018-07-22T17:56:17.034Z,70.40
2018-07-22T17:58:45.509Z,70.00
2018-07-22T18:01:13.981Z,69.30
2018-07-22T18:03:42.236Z,68.80
2018-07-22T18:06:10.644Z,68.70
2018-07-22T18:08:39.153Z,68.10
2018-07-22T18:11:08.296Z,68.50
2018-07-22T18:13:37.039Z,69.20
2018-07-22T18:16:05.426Z,68.80
2018-07-22T18:18:33.720Z,68.40
2018-07-22T18:21:02.256Z,68.30
2018-07-22T18:23:30.593Z,68.90
2018-07-22T18:25:59.111Z,69.20
2018-07-22T18:28:27.418Z,69.60
2018-07-22T18:30:55.871Z,69.30
2018-07-22T18:33:24.214Z,68.70
2018-07-22T18:35:52.607Z,70.00
2018-07-22T18:38:21.060Z,70.20
2018-07-22T18:40:49.484Z,69.70
2018-07-22T18:43:18.047Z,69.80
2018-07-22T18:45:46.563Z,69.10
2018-07-22T18:48:15.125Z,69.70
2018-07-22T18:50:44.184Z,69.90
2018-07-22T18:53:12.603Z,70.40
2018-07-22T18:55:40.899Z,70.60
2018-07-22T18:58:09.235Z,71.80
2018-07-22T19:00:37.531Z,71.80
2018-07-22T19:03:06.136Z,71.90
2018-07-22T19:05:34.437Z,72.40
2018-07-22T19:08:02.755Z,72.80
2018-07-22T19:10:31.054Z,73.40
2018-07-22T19:12:59.358Z,73.30
2018-07-22T19:15:27.922Z,73.60
2018-07-22T19:17:56.212Z,74.00
2018-07-22T19:20:24.612Z,74.20
2018-07-22T19:22:53.069Z,74.50
2018-07-22T19:25:21.583Z,74.70
2018-07-22T19:27:50.268Z,74.80
2018-07-22T19:30:18.890Z,75.20
2018-07-22T19:32:47.292Z,75.40
2018-07-22T19:35:15.582Z,75.50
2018-07-22T19:37:43.939Z,75.70
2018-07-22T19:40:12.362Z,76.00
2018-07-22T19:42:40.691Z,76.50
2018-07-22T19:45:09.024Z,76.80
2018-07-22T19:47:37.522Z,77.00
2018-07-22T19:50:05.898Z,77.10
2018-07-22T19:52:34.190Z,77.10
2018-07-22T19:55:02.528Z,77.10
2018-07-22T19:57:31.267Z,77.00
2018-07-22T19:59:59.813Z,77.00
2018-07-22T20:02:28.270Z,77.00
2018-07-22T20:07:26.326Z,77.10
2018-07-22T20:09:55.193Z,77.20
2018-07-22T20:12:23.580Z,77.40
2018-07-22T20:14:51.988Z,77.50
2018-07-22T20:17:20.375Z,77.70
2018-07-22T20:19:48.894Z,77.90
2018-07-22T20:22:17.300Z,78.20
2018-07-22T20:24:45.707Z,78.50
2018-07-22T20:27:14.103Z,78.70
2018-07-22T20:29:42.411Z,78.90
2018-07-22T20:32:11.031Z,79.20
2018-07-22T20:34:39.502Z,79.40
2018-07-22T20:37:07.882Z,79.80
2018-07-22T20:39:36.252Z,79.90
2018-07-22T20:42:04.677Z,80.10
2018-07-22T20:44:33.143Z,80.30
2018-07-22T20:47:01.913Z,80.40
2018-07-22T20:49:30.189Z,80.70
2018-07-22T20:51:58.714Z,80.70
2018-07-22T20:56:55.357Z,81.20
2018-07-22T20:59:23.738Z,81.30
2018-07-22T21:01:52.128Z,81.40
2018-07-22T21:06:48.767Z,81.40
2018-07-22T21:09:17.060Z,81.80
2018-07-22T21:11:56.782Z,81.90
2018-07-22T21:14:25.086Z,82.00
2018-07-22T21:16:53.530Z,82.30
2018-07-22T21:19:21.822Z,82.30
2018-07-22T21:21:50.121Z,82.50
2018-07-22T21:24:18.403Z,82.50
2018-07-22T21:26:46.759Z,82.70
2018-07-22T21:29:15.086Z,83.10
2018-07-22T21:31:43.404Z,83.20
2018-07-22T21:34:11.788Z,83.30
2018-07-22T21:36:40.168Z,83.60
2018-07-22T21:39:09.690Z,83.80
2018-07-22T21:41:38.005Z,84.00
2018-07-22T21:44:06.279Z,84.20
2018-07-22T21:46:34.595Z,84.50
2018-07-22T21:49:02.935Z,84.30
2018-07-22T21:51:31.228Z,84.40
2018-07-22T21:53:59.605Z,84.60
2018-07-22T21:56:27.879Z,84.60
2018-07-22T21:58:56.254Z,85.50
2018-07-22T22:01:24.547Z,84.80
2018-07-22T22:03:52.844Z,84.90
2018-07-22T22:06:21.279Z,85.90
2018-07-22T22:08:49.722Z,85.30
2018-07-22T22:11:18.194Z,86.20
2018-07-22T22:13:46.632Z,85.70
2018-07-22T22:16:14.935Z,85.80
2018-07-22T22:18:43.255Z,85.90
2018-07-22T22:21:11.600Z,86.20
2018-07-22T22:23:39.929Z,86.40
2018-07-22T22:26:08.266Z,86.60
2018-07-22T22:28:36.595Z,86.70
2018-07-22T22:31:04.880Z,86.90
2018-07-22T22:33:33.177Z,87.20
2018-07-22T22:36:01.518Z,87.40
2018-07-22T22:38:29.811Z,87.50
2018-07-22T22:40:58.189Z,87.50
2018-07-22T22:43:26.534Z,87.50
2018-07-22T22:45:55.008Z,87.90
2018-07-22T22:48:23.427Z,87.90
2018-07-22T22:50:51.768Z,88.30
2018-07-22T22:53:20.178Z,88.40
2018-07-22T22:55:48.500Z,88.20
2018-07-22T22:58:28.111Z,88.70
2018-07-22T23:00:56.504Z,88.70
2018-07-22T23:03:24.999Z,88.90
2018-07-22T23:05:53.374Z,89.00
2018-07-22T23:10:49.682Z,89.10
2018-07-22T23:13:17.969Z,89.20
2018-07-22T23:15:46.333Z,89.00
2018-07-22T23:18:14.642Z,89.20
2018-07-22T23:20:42.959Z,89.20
2018-07-22T23:23:11.408Z,89.30
2018-07-22T23:25:39.731Z,89.60
2018-07-22T23:28:08.034Z,89.70
2018-07-22T23:30:36.411Z,89.70
2018-07-22T23:33:04.832Z,90.00
2018-07-22T23:35:33.193Z,89.80
2018-07-22T23:38:01.628Z,89.70
2018-07-22T23:40:29.998Z,89.90
2018-07-22T23:42:58.308Z,90.10
2018-07-22T23:45:26.639Z,90.10
2018-07-22T23:47:54.944Z,90.10
2018-07-22T23:50:23.323Z,90.10
2018-07-22T23:52:51.686Z,90.20
2018-07-22T23:55:20.053Z,90.20
2018-07-22T23:57:48.370Z,90.20
